createdAt,value
2019-03-16T00:00:52.111Z,99512.78
2019-03-16T00:03:17.954Z,99514.13
2019-03-16T00:05:43.784Z,99516.65
2019-03-16T00:08:09.666Z,99512.97
2019-03-16T00:10:35.510Z,99492.28
2019-03-16T00:13:01.354Z,99509.23
2019-03-16T00:15:27.286Z,99508.25
2019-03-16T00:17:53.118Z,99503.70
2019-03-16T00:20:19.051Z,99508.77
2019-03-16T00:22:44.914Z,99500.22
2019-03-16T00:25:10.756Z,99507.67
2019-03-16T00:27:36.784Z,99505.03
2019-03-16T00:30:13.111Z,99508.20
2019-03-16T00:32:39.083Z,99505.00
2019-03-16T00:35:05.215Z,99505.08
2019-03-16T00:37:31.074Z,99508.95
2019-03-16T00:39:56.971Z,99496.48
2019-03-16T00:42:23.609Z,99500.13
2019-03-16T00:44:49.498Z,99499.64
2019-03-16T00:47:15.617Z,99503.98
2019-03-16T00:49:41.421Z,99502.13
2019-03-16T00:52:07.481Z,99500.86
2019-03-16T00:54:33.368Z,99500.86
2019-03-16T00:56:59.215Z,99500.62
2019-03-16T00:59:25.107Z,99502.04
2019-03-16T01:01:50.926Z,99497.52
2019-03-16T01:04:16.857Z,99488.94
2019-03-16T01:06:42.748Z,99496.11
2019-03-16T01:09:08.581Z,99498.19
2019-03-16T01:11:34.533Z,99488.32
2019-03-16T01:14:00.424Z,99491.90
2019-03-16T01:16:26.341Z,99489.34
2019-03-16T01:18:52.169Z,99493.96
2019-03-16T01:21:18.130Z,99492.45
2019-03-16T01:23:44.085Z,99488.61
2019-03-16T01:26:10.010Z,99489.53
2019-03-16T01:28:35.901Z,99482.41
2019-03-16T01:31:01.839Z,99485.36
2019-03-16T01:33:27.668Z,99483.74
2019-03-16T01:35:53.750Z,99484.26
2019-03-16T01:38:19.715Z,99485.45
2019-03-16T01:40:45.707Z,99478.30
2019-03-16T01:43:11.526Z,99471.56
2019-03-16T01:45:37.359Z,99472.59
2019-03-16T01:48:03.440Z,99470.02
2019-03-16T01:50:29.269Z,99472.93
2019-03-16T01:52:55.211Z,99472.12
2019-03-16T01:55:21.023Z,99468.53
2019-03-16T01:57:46.862Z,99474.44
2019-03-16T02:00:14.859Z,99472.65
2019-03-16T02:02:53.847Z,99471.27
2019-03-16T02:05:08.785Z,99473.83
2019-03-16T02:07:34.613Z,99468.30
2019-03-16T02:10:00.448Z,99465.22
2019-03-16T02:12:26.443Z,99457.09
2019-03-16T02:14:52.299Z,99456.92
2019-03-16T02:17:18.151Z,99459.78
2019-03-16T02:19:44.226Z,99452.11
2019-03-16T02:22:10.020Z,99452.02
2019-03-16T02:24:35.974Z,99449.52
2019-03-16T02:27:02.084Z,99444.41
2019-03-16T02:29:27.909Z,99448.45
2019-03-16T02:31:53.832Z,99445.04
2019-03-16T02:34:19.705Z,99467.00
2019-03-16T02:36:50.241Z,99446.36
2019-03-16T02:39:16.142Z,99440.38
2019-03-16T02:41:41.991Z,99435.21
2019-03-16T02:44:11.126Z,99438.62
2019-03-16T02:46:35.824Z,99436.83
2019-03-16T02:49:01.683Z,99441.47
2019-03-16T02:51:27.518Z,99439.05
2019-03-16T02:53:53.376Z,99437.13
2019-03-16T02:56:19.208Z,99435.81
2019-03-16T02:58:48.771Z,99435.21
2019-03-16T03:01:14.818Z,99448.24
2019-03-16T03:03:40.619Z,99441.90
2019-03-16T03:06:06.458Z,99440.28
2019-03-16T03:08:32.388Z,99444.54
2019-03-16T03:10:58.367Z,99448.80
2019-03-16T03:13:24.309Z,99457.81
2019-03-16T03:15:50.194Z,99452.75
2019-03-16T03:18:16.185Z,99462.20
2019-03-16T03:20:42.021Z,99462.00
2019-03-16T03:23:07.871Z,99453.64
2019-03-16T03:25:33.718Z,99452.71
2019-03-16T03:27:59.555Z,99456.27
2019-03-16T03:30:25.512Z,99454.38
2019-03-16T03:32:51.424Z,99451.60
2019-03-16T03:35:17.260Z,99460.97
2019-03-16T03:37:43.347Z,99468.63
2019-03-16T03:40:10.481Z,99466.86
2019-03-16T03:42:36.542Z,99457.21
2019-03-16T03:45:04.710Z,99460.70
2019-03-16T03:47:30.655Z,99463.19
2019-03-16T03:49:56.602Z,99466.38
2019-03-16T03:52:22.449Z,99465.25
2019-03-16T03:54:48.380Z,99469.95
2019-03-16T03:57:14.384Z,99468.39
2019-03-16T03:59:40.480Z,99469.28
2019-03-16T04:02:06.628Z,99473.19
2019-03-16T04:04:32.579Z,99470.47
2019-03-16T04:06:58.597Z,99473.67
2019-03-16T04:09:24.749Z,99474.64
2019-03-16T04:11:50.589Z,99475.14
2019-03-16T04:14:16.506Z,99487.32
2019-03-16T04:16:42.344Z,99484.06
2019-03-16T04:19:08.182Z,99488.56
2019-03-16T04:21:34.175Z,99489.96
2019-03-16T04:24:00.004Z,99493.38
2019-03-16T04:26:25.858Z,99490.81
2019-03-16T04:28:51.790Z,99493.80
2019-03-16T04:31:17.622Z,99498.06
2019-03-16T04:33:43.462Z,99495.08
2019-03-16T04:36:09.409Z,99497.60
2019-03-16T04:38:35.258Z,99499.62
2019-03-16T04:41:01.295Z,99504.08
2019-03-16T04:43:27.153Z,99508.03
2019-03-16T04:45:52.991Z,99503.15
2019-03-16T04:48:18.813Z,99503.53
2019-03-16T04:50:44.800Z,99501.94
2019-03-16T04:53:10.617Z,99506.91
2019-03-16T04:55:36.469Z,99496.97
2019-03-16T04:58:02.504Z,99498.59
2019-03-16T05:00:28.489Z,99498.20
2019-03-16T05:02:54.337Z,99505.92
2019-03-16T05:05:20.214Z,99504.06
2019-03-16T05:07:46.057Z,99503.94
2019-03-16T05:10:12.080Z,99493.78
2019-03-16T05:12:38.077Z,99503.45
2019-03-16T05:15:08.408Z,99498.83
2019-03-16T05:17:34.240Z,99509.47
2019-03-16T05:20:00.408Z,99511.72
2019-03-16T05:22:26.278Z,99516.06
2019-03-16T05:24:52.105Z,99513.14
2019-03-16T05:27:18.173Z,99515.52
2019-03-16T05:29:44.017Z,99509.72
2019-03-16T05:32:09.945Z,99512.72
2019-03-16T05:34:35.802Z,99520.30
2019-03-16T05:37:01.725Z,99526.14
2019-03-16T05:39:27.762Z,99527.17
2019-03-16T05:41:53.590Z,99531.34
2019-03-16T05:44:19.438Z,99529.88
2019-03-16T05:46:45.281Z,99537.33
2019-03-16T05:49:11.133Z,99544.80
2019-03-16T05:51:37.107Z,99550.30
2019-03-16T05:54:03.135Z,99552.28
2019-03-16T05:56:28.982Z,99543.16
2019-03-16T05:58:54.911Z,99551.10
2019-03-16T06:01:20.788Z,99554.09
2019-03-16T06:03:46.838Z,99549.70
2019-03-16T06:06:12.736Z,99555.27
2019-03-16T06:08:38.603Z,99556.80
2019-03-16T06:11:04.403Z,99560.96
2019-03-16T06:13:30.309Z,99569.44
2019-03-16T06:15:56.226Z,99558.37
2019-03-16T06:18:22.065Z,99560.89
2019-03-16T06:20:48.017Z,99561.64
2019-03-16T06:23:13.861Z,99561.79
2019-03-16T06:25:39.771Z,99570.15
2019-03-16T06:28:05.743Z,99571.11
2019-03-16T06:30:31.547Z,99570.08
2019-03-16T06:32:57.366Z,99567.59
2019-03-16T06:35:25.038Z,99554.09
2019-03-16T06:37:51.076Z,99562.75
2019-03-16T06:40:16.913Z,99572.66
2019-03-16T06:42:42.878Z,99571.32
2019-03-16T06:45:10.485Z,99568.41
2019-03-16T06:47:36.416Z,99574.05
2019-03-16T06:50:13.419Z,99579.72
2019-03-16T06:52:39.257Z,99575.77
2019-03-16T06:55:06.177Z,99578.98
2019-03-16T06:57:32.010Z,99582.16
2019-03-16T06:59:57.821Z,99585.23
2019-03-16T07:02:23.841Z,99590.81
2019-03-16T07:04:49.691Z,99578.88
2019-03-16T07:07:15.524Z,99581.19
2019-03-16T07:09:41.574Z,99586.14
2019-03-16T07:12:07.394Z,99592.55
2019-03-16T07:14:33.373Z,99589.85
2019-03-16T07:17:02.390Z,99597.36
2019-03-16T07:19:27.038Z,99603.27
2019-03-16T07:21:52.918Z,99600.15
2019-03-16T07:24:18.741Z,99603.29
2019-03-16T07:26:44.701Z,99608.11
2019-03-16T07:29:10.550Z,99610.83
2019-03-16T07:31:36.500Z,99613.39
2019-03-16T07:34:02.468Z,99621.69
2019-03-16T07:36:28.306Z,99630.66
2019-03-16T07:38:54.269Z,99640.38
2019-03-16T07:41:20.131Z,99641.61
2019-03-16T07:43:45.957Z,99641.63
2019-03-16T07:46:11.936Z,99648.84
2019-03-16T07:48:37.786Z,99651.13
2019-03-16T07:51:03.712Z,99657.70
2019-03-16T07:53:29.556Z,99657.81
2019-03-16T07:55:55.490Z,99664.24
2019-03-16T07:58:21.452Z,99662.39
2019-03-16T08:00:47.349Z,99669.08
2019-03-16T08:03:13.385Z,99666.40
2019-03-16T08:05:39.343Z,99671.22
2019-03-16T08:08:05.271Z,99667.72
2019-03-16T08:10:31.206Z,99668.31
2019-03-16T08:12:57.081Z,99666.25
2019-03-16T08:15:23.027Z,99666.46
2019-03-16T08:17:48.935Z,99662.69
2019-03-16T08:20:15.119Z,99663.47
2019-03-16T08:22:41.079Z,99666.82
2019-03-16T08:25:08.910Z,99669.75
2019-03-16T08:27:34.790Z,99673.71
2019-03-16T08:30:00.769Z,99681.09
2019-03-16T08:32:26.588Z,99684.40
2019-03-16T08:34:52.587Z,99683.81
2019-03-16T08:37:18.445Z,99680.20
2019-03-16T08:39:44.292Z,99674.06
2019-03-16T08:42:12.266Z,99663.13
2019-03-16T08:44:37.899Z,99664.99
2019-03-16T08:47:07.509Z,99662.52
2019-03-16T08:49:33.364Z,99670.67
2019-03-16T08:51:59.233Z,99664.39
2019-03-16T08:54:25.181Z,99668.75
2019-03-16T08:56:51.139Z,99666.28
2019-03-16T08:59:16.986Z,99672.47
2019-03-16T09:01:42.953Z,99676.87
2019-03-16T09:04:08.816Z,99672.91
2019-03-16T09:06:34.799Z,99675.06
2019-03-16T09:09:00.630Z,99673.55
2019-03-16T09:11:26.453Z,99680.23
2019-03-16T09:13:52.337Z,99667.86
2019-03-16T09:16:18.187Z,99669.50
2019-03-16T09:18:44.039Z,99673.81
2019-03-16T09:21:09.918Z,99671.86
2019-03-16T09:23:35.733Z,99675.27
2019-03-16T09:26:01.600Z,99670.39
2019-03-16T09:28:27.453Z,99673.08
2019-03-16T09:30:56.324Z,99672.63
2019-03-16T09:33:21.452Z,99677.62
2019-03-16T09:35:47.353Z,99680.25
2019-03-16T09:38:13.295Z,99681.82
2019-03-16T09:40:39.244Z,99685.70
2019-03-16T09:43:05.187Z,99690.14
2019-03-16T09:45:31.390Z,99687.34
2019-03-16T09:47:57.248Z,99681.79
2019-03-16T09:50:23.204Z,99677.38
2019-03-16T09:52:50.073Z,99680.41
2019-03-16T09:55:16.015Z,99683.92
2019-03-16T09:57:42.002Z,99671.03
2019-03-16T10:00:10.929Z,99674.47
2019-03-16T10:02:36.760Z,99671.10
2019-03-16T10:05:04.013Z,99678.91
2019-03-16T10:07:29.920Z,99684.17
2019-03-16T10:09:55.761Z,99674.57
2019-03-16T10:12:21.626Z,99675.16
2019-03-16T10:14:47.562Z,99676.92
2019-03-16T10:17:13.507Z,99675.07
2019-03-16T10:19:39.451Z,99669.17
2019-03-16T10:22:05.386Z,99663.52
2019-03-16T10:24:31.275Z,99661.11
2019-03-16T10:26:57.144Z,99666.05
2019-03-16T10:29:23.006Z,99676.33
2019-03-16T10:31:49.049Z,99673.12
2019-03-16T10:34:14.901Z,99668.31
2019-03-16T10:36:40.735Z,99675.38
2019-03-16T10:39:06.626Z,99673.02
2019-03-16T10:41:32.556Z,99672.52
2019-03-16T10:43:58.390Z,99672.73
2019-03-16T10:46:24.247Z,99670.52
2019-03-16T10:48:50.080Z,99662.59
2019-03-16T10:51:16.040Z,99659.72
2019-03-16T10:53:41.952Z,99656.21
2019-03-16T10:56:07.763Z,99651.89
2019-03-16T10:58:33.608Z,99653.38
2019-03-16T11:00:59.469Z,99657.53
2019-03-16T11:03:25.340Z,99661.45
2019-03-16T11:05:51.186Z,99654.44
2019-03-16T11:08:17.011Z,99654.33
2019-03-16T11:10:42.885Z,99662.30
2019-03-16T11:13:08.924Z,99660.59
2019-03-16T11:15:34.835Z,99660.37
2019-03-16T11:18:00.681Z,99648.78
2019-03-16T11:20:26.545Z,99651.05
2019-03-16T11:22:52.376Z,99644.95
2019-03-16T11:25:18.397Z,99646.39
2019-03-16T11:27:44.245Z,99651.26
2019-03-16T11:30:14.699Z,99643.35
2019-03-16T11:32:40.772Z,99650.66
2019-03-16T11:35:08.922Z,99645.20
2019-03-16T11:37:34.745Z,99640.98
2019-03-16T11:40:00.717Z,99638.85
2019-03-16T11:42:26.571Z,99638.46
2019-03-16T11:44:52.458Z,99629.32
2019-03-16T11:47:18.312Z,99623.77
2019-03-16T11:49:44.132Z,99626.15
2019-03-16T11:52:10.100Z,99617.03
2019-03-16T11:54:35.930Z,99622.48
2019-03-16T11:57:01.763Z,99617.97
2019-03-16T11:59:27.640Z,99601.88
2019-03-16T12:02:04.801Z,99604.15
2019-03-16T12:04:21.272Z,99592.22
2019-03-16T12:06:47.175Z,99594.90
2019-03-16T12:09:13.132Z,99595.43
2019-03-16T12:11:39.176Z,99602.11
2019-03-16T12:14:05.002Z,99594.80
2019-03-16T12:16:30.949Z,99599.18
2019-03-16T12:18:56.932Z,99586.50
2019-03-16T12:21:22.835Z,99584.96
2019-03-16T12:23:48.681Z,99585.02
2019-03-16T12:26:14.629Z,99584.93
2019-03-16T12:28:40.459Z,99583.12
2019-03-16T12:31:06.414Z,99579.08
2019-03-16T12:33:32.253Z,99573.73
2019-03-16T12:35:58.081Z,99562.67
2019-03-16T12:38:24.075Z,99563.16
2019-03-16T12:40:50.013Z,99554.98
2019-03-16T12:43:15.955Z,99550.69
2019-03-16T12:45:41.828Z,99550.55
2019-03-16T12:48:07.656Z,99548.22
2019-03-16T12:50:33.624Z,99543.83
2019-03-16T12:52:59.464Z,99539.23
2019-03-16T12:55:25.415Z,99532.08
2019-03-16T12:57:51.359Z,99517.36
2019-03-16T13:00:19.430Z,99531.48
2019-03-16T13:02:46.658Z,99536.75
2019-03-16T13:05:12.687Z,99529.55
2019-03-16T13:07:38.642Z,99528.66
2019-03-16T13:10:11.306Z,99526.95
2019-03-16T13:12:39.138Z,99515.69
2019-03-16T13:15:06.982Z,99514.85
2019-03-16T13:17:32.914Z,99513.13
2019-03-16T13:19:58.725Z,99509.59
2019-03-16T13:22:24.596Z,99511.18
2019-03-16T13:24:50.913Z,99498.46
2019-03-16T13:27:16.735Z,99505.53
2019-03-16T13:29:58.215Z,99496.22
2019-03-16T13:32:14.784Z,99510.44
2019-03-16T13:34:41.957Z,99493.28
2019-03-16T13:37:07.811Z,99496.94
2019-03-16T13:39:33.725Z,99491.31
2019-03-16T13:41:59.684Z,99495.34
2019-03-16T13:44:25.498Z,99493.48
2019-03-16T13:46:52.770Z,99502.00
2019-03-16T13:49:18.642Z,99492.49
2019-03-16T13:51:47.665Z,99485.02
2019-03-16T13:54:13.627Z,99484.22
2019-03-16T13:56:39.548Z,99484.22
2019-03-16T13:59:05.403Z,99482.99
2019-03-16T14:01:31.604Z,99482.53
2019-03-16T14:03:57.527Z,99478.73
2019-03-16T14:06:23.365Z,99480.89
2019-03-16T14:08:49.457Z,99475.72
2019-03-16T14:11:15.311Z,99468.97
2019-03-16T14:13:41.134Z,99478.04
2019-03-16T14:16:07.097Z,99470.30
2019-03-16T14:18:32.942Z,99467.66
2019-03-16T14:20:58.894Z,99472.84
2019-03-16T14:23:24.738Z,99469.21
2019-03-16T14:25:50.675Z,99467.53
2019-03-16T14:28:16.914Z,99467.05
2019-03-16T14:30:45.246Z,99462.00
2019-03-16T14:33:11.466Z,99464.95
2019-03-16T14:35:37.416Z,99455.48
2019-03-16T14:38:03.363Z,99462.19
2019-03-16T14:40:29.291Z,99452.35
2019-03-16T14:42:55.212Z,99451.27
2019-03-16T14:45:21.391Z,99451.06
2019-03-16T14:47:47.213Z,99447.95
2019-03-16T14:50:20.121Z,99449.18
2019-03-16T14:52:46.172Z,99453.30
2019-03-16T14:55:12.196Z,99445.79
2019-03-16T14:57:38.120Z,99448.92
2019-03-16T15:00:07.817Z,99436.23
2019-03-16T15:02:33.873Z,99436.06
2019-03-16T15:04:59.729Z,99430.02
2019-03-16T15:07:25.705Z,99420.67
2019-03-16T15:09:51.641Z,99431.23
2019-03-16T15:12:17.497Z,99425.80
2019-03-16T15:14:43.391Z,99431.48
2019-03-16T15:17:09.440Z,99430.84
2019-03-16T15:19:35.342Z,99439.41
2019-03-16T15:22:01.227Z,99440.16
2019-03-16T15:24:27.059Z,99453.05
2019-03-16T15:26:53.017Z,99446.25
2019-03-16T15:29:18.852Z,99451.11
2019-03-16T15:31:44.816Z,99456.83
2019-03-16T15:34:10.768Z,99478.42
2019-03-16T15:36:36.625Z,99472.40
2019-03-16T15:39:05.249Z,99471.86
2019-03-16T15:41:31.088Z,99463.19
2019-03-16T15:43:56.932Z,99476.05
2019-03-16T15:46:23.058Z,99467.75
2019-03-16T15:48:49.019Z,99443.38
2019-03-16T15:51:14.834Z,99443.38
2019-03-16T15:53:40.874Z,99427.48
2019-03-16T15:56:06.851Z,99428.50
2019-03-16T15:58:32.772Z,99425.80
2019-03-16T16:01:03.643Z,99427.97
2019-03-16T16:03:26.492Z,99433.14
2019-03-16T16:05:52.524Z,99427.48
2019-03-16T16:08:19.458Z,99430.56
2019-03-16T16:10:45.539Z,99421.45
2019-03-16T16:13:11.418Z,99423.06
2019-03-16T16:15:37.269Z,99449.33
2019-03-16T16:18:03.207Z,99435.94
2019-03-16T16:20:29.245Z,99433.45
2019-03-16T16:22:55.090Z,99425.75
2019-03-16T16:25:20.916Z,99422.57
2019-03-16T16:27:47.110Z,99426.05
2019-03-16T16:30:19.950Z,99428.00
2019-03-16T16:32:45.946Z,99444.18
2019-03-16T16:35:12.827Z,99449.67
2019-03-16T16:37:38.845Z,99449.41
2019-03-16T16:40:14.677Z,99445.71
2019-03-16T16:42:40.511Z,99444.77
2019-03-16T16:45:09.151Z,99449.50
2019-03-16T16:47:35.178Z,99449.20
2019-03-16T16:50:01.035Z,99449.49
2019-03-16T16:52:26.879Z,99449.64
2019-03-16T16:54:52.810Z,99451.14
2019-03-16T16:57:18.734Z,99455.70
2019-03-16T16:59:44.586Z,99459.25
2019-03-16T17:02:10.557Z,99463.98
2019-03-16T17:04:36.509Z,99463.12
2019-03-16T17:07:02.861Z,99452.33
2019-03-16T17:09:28.790Z,99457.12
2019-03-16T17:11:54.716Z,99464.52
2019-03-16T17:14:20.596Z,99467.60
2019-03-16T17:16:46.436Z,99469.96
2019-03-16T17:19:12.331Z,99474.41
2019-03-16T17:21:38.459Z,99477.42
2019-03-16T17:24:04.515Z,99472.39
2019-03-16T17:26:31.573Z,99473.59
2019-03-16T17:28:57.407Z,99470.85
2019-03-16T17:31:23.266Z,99479.82
2019-03-16T17:33:49.193Z,99477.91
2019-03-16T17:36:15.044Z,99487.05
2019-03-16T17:38:40.990Z,99490.55
2019-03-16T17:41:06.979Z,99490.23
2019-03-16T17:43:33.194Z,99488.50
2019-03-16T17:45:59.054Z,99486.11
2019-03-16T17:48:24.901Z,99490.09
2019-03-16T17:50:50.827Z,99490.33
2019-03-16T17:53:16.657Z,99490.69
2019-03-16T17:55:46.225Z,99493.81
2019-03-16T17:58:12.297Z,99500.27
2019-03-16T18:00:38.206Z,99503.25
2019-03-16T18:03:04.274Z,99509.85
2019-03-16T18:05:30.238Z,99506.38
2019-03-16T18:07:56.192Z,99510.16
2019-03-16T18:10:22.081Z,99518.09
2019-03-16T18:12:48.270Z,99521.41
2019-03-16T18:15:18.403Z,99520.12
2019-03-16T18:17:44.321Z,99519.16
2019-03-16T18:20:11.977Z,99525.70
2019-03-16T18:22:37.781Z,99530.34
2019-03-16T18:25:07.046Z,99530.11
2019-03-16T18:27:32.977Z,99539.50
2019-03-16T18:29:58.843Z,99539.35
2019-03-16T18:32:24.702Z,99545.71
2019-03-16T18:34:50.563Z,99555.16
2019-03-16T18:37:16.509Z,99554.90
2019-03-16T18:39:42.318Z,99556.70
2019-03-16T18:42:08.163Z,99563.08
2019-03-16T18:44:34.258Z,99564.73
2019-03-16T18:47:00.095Z,99569.64
2019-03-16T18:49:25.908Z,99571.06
2019-03-16T18:51:51.837Z,99578.80
2019-03-16T18:54:17.697Z,99573.64
2019-03-16T18:56:43.795Z,99570.70
2019-03-16T18:59:09.749Z,99583.38
2019-03-16T19:01:35.604Z,99590.43
2019-03-16T19:04:01.436Z,99599.67
2019-03-16T19:06:27.325Z,99599.10
2019-03-16T19:08:53.139Z,99597.56
2019-03-16T19:11:18.977Z,99593.36
2019-03-16T19:13:44.917Z,99604.02
2019-03-16T19:16:10.764Z,99607.23
2019-03-16T19:18:36.678Z,99612.26
2019-03-16T19:21:02.870Z,99622.22
2019-03-16T19:23:28.699Z,99621.77
2019-03-16T19:25:54.536Z,99628.25
2019-03-16T19:28:20.518Z,99627.36
2019-03-16T19:30:46.383Z,99634.23
2019-03-16T19:33:12.201Z,99629.84
2019-03-16T19:35:38.103Z,99628.05
2019-03-16T19:38:04.042Z,99637.80
2019-03-16T19:40:29.970Z,99626.11
2019-03-16T19:42:55.858Z,99637.56
2019-03-16T19:45:21.707Z,99644.83
2019-03-16T19:47:47.540Z,99653.45
2019-03-16T19:50:14.388Z,99657.88
2019-03-16T19:52:40.321Z,99658.66
2019-03-16T19:55:10.976Z,99656.34
2019-03-16T19:57:36.970Z,99664.73
2019-03-16T20:00:05.884Z,99664.88
2019-03-16T20:02:31.828Z,99673.80
2019-03-16T20:04:57.647Z,99670.07
2019-03-16T20:07:23.587Z,99669.19
2019-03-16T20:09:49.443Z,99678.48
2019-03-16T20:12:15.276Z,99687.05
2019-03-16T20:14:41.182Z,99690.16
2019-03-16T20:17:07.006Z,99697.19
2019-03-16T20:19:32.844Z,99637.30
2019-03-16T20:21:58.699Z,99704.03
2019-03-16T20:24:24.660Z,99704.25
2019-03-16T20:26:50.607Z,99702.84
2019-03-16T20:29:16.487Z,99700.66
2019-03-16T20:31:47.093Z,99711.23
2019-03-16T20:34:10.134Z,99717.19
2019-03-16T20:36:35.975Z,99715.80
2019-03-16T20:39:03.710Z,99724.38
2019-03-16T20:41:36.199Z,99721.66
2019-03-16T20:43:57.465Z,99717.75
2019-03-16T20:46:23.398Z,99718.34
2019-03-16T20:48:49.300Z,99716.21
2019-03-16T20:51:15.242Z,99722.25
2019-03-16T20:53:41.080Z,99719.87
2019-03-16T20:56:07.150Z,99721.30
2019-03-16T20:58:37.103Z,99720.48
2019-03-16T21:01:03.168Z,99724.92
2019-03-16T21:03:28.989Z,99724.27
2019-03-16T21:05:54.860Z,99729.28
2019-03-16T21:08:20.828Z,99734.76
2019-03-16T21:10:46.655Z,99729.59
2019-03-16T21:13:12.557Z,99735.52
2019-03-16T21:15:38.518Z,99737.86
2019-03-16T21:18:04.578Z,99733.38
2019-03-16T21:20:30.538Z,99738.77
2019-03-16T21:22:56.575Z,99738.33
2019-03-16T21:25:22.539Z,99741.42
2019-03-16T21:27:48.546Z,99737.56
2019-03-16T21:30:19.608Z,99737.25
2019-03-16T21:32:45.628Z,99747.45
2019-03-16T21:35:11.465Z,99745.91
2019-03-16T21:37:37.416Z,99747.77
2019-03-16T21:40:06.642Z,99751.76
2019-03-16T21:42:32.611Z,99751.83
2019-03-16T21:44:58.654Z,99759.17
2019-03-16T21:47:24.970Z,99754.58
2019-03-16T21:49:50.918Z,99751.98
2019-03-16T21:52:16.975Z,99766.44
2019-03-16T21:54:42.877Z,99769.32
2019-03-16T21:57:08.977Z,99773.55
2019-03-16T21:59:35.037Z,99776.19
2019-03-16T22:02:01.132Z,99784.16
2019-03-16T22:04:27.112Z,99772.23
2019-03-16T22:06:52.936Z,99775.95
2019-03-16T22:09:18.797Z,99772.69
2019-03-16T22:11:44.674Z,99769.62
2019-03-16T22:14:10.558Z,99778.01
2019-03-16T22:16:36.512Z,99782.84
2019-03-16T22:19:02.534Z,99781.70
2019-03-16T22:21:28.513Z,99781.75
2019-03-16T22:23:54.467Z,99781.28
2019-03-16T22:26:20.340Z,99785.97
2019-03-16T22:28:46.193Z,99783.89
2019-03-16T22:31:12.118Z,99787.66
2019-03-16T22:33:38.179Z,99792.59
2019-03-16T22:36:04.115Z,99795.83
2019-03-16T22:38:29.978Z,99797.02
2019-03-16T22:40:55.854Z,99798.59
2019-03-16T22:43:21.806Z,99801.45
2019-03-16T22:45:47.700Z,99802.09
2019-03-16T22:48:13.668Z,99810.33
2019-03-16T22:50:39.713Z,99816.08
2019-03-16T22:53:05.666Z,99809.30
2019-03-16T22:55:31.587Z,99806.30
2019-03-16T22:57:57.443Z,99806.81
2019-03-16T23:00:25.668Z,99796.63
2019-03-16T23:02:51.597Z,99808.37
2019-03-16T23:05:17.654Z,99811.80
2019-03-16T23:07:43.662Z,99804.78
2019-03-16T23:10:10.705Z,99805.25
2019-03-16T23:12:36.530Z,99808.34
2019-03-16T23:15:04.910Z,99800.50
2019-03-16T23:17:32.313Z,99798.56
2019-03-16T23:19:58.137Z,99802.15
2019-03-16T23:22:24.106Z,99800.11
2019-03-16T23:24:49.932Z,99806.77
2019-03-16T23:27:15.897Z,99796.80
2019-03-16T23:29:41.791Z,99795.23
2019-03-16T23:32:07.753Z,99797.89
2019-03-16T23:34:33.629Z,99793.22
2019-03-16T23:36:59.465Z,99792.14
2019-03-16T23:39:25.329Z,99790.92
2019-03-16T23:41:51.297Z,99789.53
2019-03-16T23:44:17.223Z,99797.34
2019-03-16T23:46:43.154Z,99792.59
2019-03-16T23:49:09.049Z,99794.53
2019-03-16T23:51:34.879Z,99795.58
2019-03-16T23:54:00.817Z,99791.17
2019-03-16T23:56:26.852Z,99796.30
2019-03-16T23:58:52.945Z,99801.16
